createdAt,value
2017-12-10T00:01:05.532Z,51.00
2017-12-10T00:03:32.964Z,51.30
2017-12-10T00:06:00.407Z,51.70
2017-12-10T00:08:27.851Z,51.80
2017-12-10T00:10:55.280Z,51.90
2017-12-10T00:13:22.752Z,51.40
2017-12-10T00:15:50.185Z,51.30
2017-12-10T00:18:17.655Z,51.20
2017-12-10T00:20:45.888Z,51.50
2017-12-10T00:23:13.329Z,52.10
2017-12-10T00:25:40.779Z,51.10
2017-12-10T00:28:08.217Z,51.20
2017-12-10T00:30:35.645Z,50.70
2017-12-10T00:33:03.072Z,51.00
2017-12-10T00:35:30.508Z,51.20
2017-12-10T00:37:57.979Z,50.50
2017-12-10T00:40:25.427Z,50.50
2017-12-10T00:42:52.872Z,50.50
2017-12-10T00:45:20.316Z,50.20
2017-12-10T00:47:47.856Z,49.80
2017-12-10T00:50:15.305Z,50.10
2017-12-10T00:52:42.740Z,50.10
2017-12-10T00:55:10.193Z,49.60
2017-12-10T00:57:37.667Z,49.90
2017-12-10T01:00:05.104Z,50.00
2017-12-10T01:02:32.540Z,49.80
2017-12-10T01:05:00.737Z,50.10
2017-12-10T01:07:28.177Z,50.10
2017-12-10T01:09:55.655Z,49.70
2017-12-10T01:12:23.206Z,49.70
2017-12-10T01:14:50.660Z,49.70
2017-12-10T01:17:18.096Z,49.70
2017-12-10T01:19:47.172Z,49.40
2017-12-10T01:22:14.597Z,49.40
2017-12-10T01:24:42.066Z,49.70
2017-12-10T01:27:09.492Z,50.00
2017-12-10T01:29:37.708Z,50.20
2017-12-10T01:32:05.156Z,50.20
2017-12-10T01:34:32.592Z,50.40
2017-12-10T01:37:00.029Z,50.50
2017-12-10T01:39:27.488Z,50.60
2017-12-10T01:41:54.917Z,50.80
2017-12-10T01:44:22.355Z,50.90
2017-12-10T01:46:49.821Z,51.00
2017-12-10T01:49:17.443Z,51.20
2017-12-10T01:51:44.908Z,51.60
2017-12-10T01:54:12.468Z,51.50
2017-12-10T01:56:39.898Z,51.70
2017-12-10T01:59:10.289Z,52.00
2017-12-10T02:01:37.756Z,51.90
2017-12-10T02:04:05.292Z,52.10
2017-12-10T02:06:32.735Z,52.00
2017-12-10T02:09:00.776Z,52.00
2017-12-10T02:11:28.208Z,52.00
2017-12-10T02:13:55.648Z,52.20
2017-12-10T02:16:23.120Z,52.30
2017-12-10T02:18:50.669Z,52.50
2017-12-10T02:21:18.099Z,52.30
2017-12-10T02:23:45.543Z,52.50
2017-12-10T02:26:13.002Z,52.50
2017-12-10T02:28:41.340Z,53.00
2017-12-10T02:31:08.785Z,53.10
2017-12-10T02:33:36.243Z,52.60
2017-12-10T02:36:03.691Z,52.70
2017-12-10T02:38:31.124Z,52.50
2017-12-10T02:40:58.567Z,52.40
2017-12-10T02:43:26.026Z,52.50
2017-12-10T02:45:53.556Z,52.30
2017-12-10T02:48:20.992Z,52.20
2017-12-10T02:50:48.444Z,52.20
2017-12-10T02:53:15.880Z,52.60
2017-12-10T02:55:43.337Z,52.30
2017-12-10T02:58:10.780Z,52.60
2017-12-10T03:00:38.318Z,52.30
2017-12-10T03:03:05.753Z,52.70
2017-12-10T03:05:33.192Z,52.60
2017-12-10T03:08:00.628Z,52.20
2017-12-10T03:10:28.976Z,52.40
2017-12-10T03:12:56.468Z,52.00
2017-12-10T03:15:33.837Z,52.20
2017-12-10T03:18:01.384Z,52.00
2017-12-10T03:20:28.921Z,52.30
2017-12-10T03:22:56.356Z,52.70
2017-12-10T03:25:23.787Z,53.20
2017-12-10T03:27:51.253Z,53.30
2017-12-10T03:30:18.810Z,53.70
2017-12-10T03:32:46.249Z,53.90
2017-12-10T03:35:15.244Z,54.00
2017-12-10T03:37:42.812Z,54.10
2017-12-10T03:40:10.323Z,54.20
2017-12-10T03:42:37.753Z,53.90
2017-12-10T03:45:05.185Z,53.80
2017-12-10T03:47:32.636Z,53.30
2017-12-10T03:50:00.080Z,53.00
2017-12-10T03:52:27.626Z,53.10
2017-12-10T03:54:55.075Z,53.00
2017-12-10T03:57:22.526Z,52.60
2017-12-10T03:59:50.061Z,52.50
2017-12-10T04:02:17.496Z,52.40
2017-12-10T04:04:44.928Z,52.50
2017-12-10T04:07:12.407Z,52.50
2017-12-10T04:09:39.828Z,52.50
2017-12-10T04:12:07.276Z,52.50
2017-12-10T04:14:34.816Z,52.50
2017-12-10T04:17:02.264Z,52.50
2017-12-10T04:19:29.700Z,52.50
2017-12-10T04:21:57.125Z,52.50
2017-12-10T04:24:24.562Z,52.40
2017-12-10T04:26:52.784Z,52.80
2017-12-10T04:29:20.232Z,52.70
2017-12-10T04:31:47.665Z,53.00
2017-12-10T04:34:15.109Z,53.10
2017-12-10T04:36:42.573Z,53.40
2017-12-10T04:39:10.109Z,53.60
2017-12-10T04:41:37.543Z,53.90
2017-12-10T04:44:05.019Z,53.90
2017-12-10T04:46:33.221Z,54.00
2017-12-10T04:49:00.676Z,54.00
2017-12-10T04:51:28.099Z,53.80
2017-12-10T04:53:55.537Z,53.70
2017-12-10T04:56:22.971Z,53.60
2017-12-10T04:58:50.420Z,53.80
2017-12-10T05:01:17.862Z,53.50
2017-12-10T05:03:45.352Z,53.30
2017-12-10T05:06:12.793Z,53.40
2017-12-10T05:08:40.249Z,53.50
2017-12-10T05:11:09.198Z,53.80
2017-12-10T05:13:36.661Z,53.80
2017-12-10T05:16:04.106Z,54.00
2017-12-10T05:18:31.527Z,53.80
2017-12-10T05:20:58.989Z,53.80
2017-12-10T05:23:26.432Z,54.20
2017-12-10T05:25:53.877Z,53.90
2017-12-10T05:28:21.316Z,53.70
2017-12-10T05:30:48.755Z,53.80
2017-12-10T05:33:16.181Z,53.70
2017-12-10T05:35:43.650Z,53.50
2017-12-10T05:38:11.114Z,53.60
2017-12-10T05:40:38.560Z,53.50
2017-12-10T05:43:06.008Z,52.70
2017-12-10T05:45:33.443Z,52.80
2017-12-10T05:48:00.880Z,52.60
2017-12-10T05:50:28.321Z,52.50
2017-12-10T05:52:55.760Z,52.10
2017-12-10T05:55:23.216Z,51.70
2017-12-10T05:57:50.715Z,52.20
2017-12-10T06:00:18.200Z,51.70
2017-12-10T06:02:45.744Z,51.80
2017-12-10T06:05:13.201Z,51.70
2017-12-10T06:07:40.635Z,51.70
2017-12-10T06:10:08.074Z,51.70
2017-12-10T06:12:35.520Z,51.40
2017-12-10T06:15:02.966Z,50.60
2017-12-10T06:17:30.405Z,50.90
2017-12-10T06:19:57.831Z,50.50
2017-12-10T06:22:25.280Z,50.70
2017-12-10T06:24:52.719Z,50.80
2017-12-10T06:27:20.929Z,49.90
2017-12-10T06:29:48.373Z,50.00
2017-12-10T06:32:15.839Z,50.50
2017-12-10T06:34:43.302Z,49.80
2017-12-10T06:37:10.901Z,49.90
2017-12-10T06:39:38.357Z,50.30
2017-12-10T06:42:05.783Z,49.20
2017-12-10T06:44:33.238Z,49.10
2017-12-10T06:47:00.673Z,48.40
2017-12-10T06:49:28.142Z,49.10
2017-12-10T06:51:55.594Z,49.50
2017-12-10T06:54:23.031Z,49.40
2017-12-10T06:56:50.459Z,49.60
2017-12-10T06:59:17.908Z,49.80
2017-12-10T07:01:45.337Z,50.00
2017-12-10T07:04:12.773Z,50.00
2017-12-10T07:06:40.199Z,50.10
2017-12-10T07:09:07.640Z,50.00
2017-12-10T07:11:35.084Z,50.00
2017-12-10T07:14:02.573Z,50.40
2017-12-10T07:16:30.006Z,50.10
2017-12-10T07:18:57.460Z,50.50
2017-12-10T07:21:24.925Z,50.60
2017-12-10T07:23:53.160Z,50.70
2017-12-10T07:26:20.594Z,50.60
2017-12-10T07:28:48.027Z,50.50
2017-12-10T07:31:15.469Z,50.10
2017-12-10T07:33:42.990Z,49.70
2017-12-10T07:36:10.408Z,49.00
2017-12-10T07:38:38.632Z,48.70
2017-12-10T07:41:06.077Z,48.60
2017-12-10T07:43:33.510Z,48.20
2017-12-10T07:46:01.054Z,47.90
2017-12-10T07:48:28.580Z,47.20
2017-12-10T07:50:56.012Z,45.70
2017-12-10T07:53:23.568Z,44.70
2017-12-10T07:55:51.099Z,45.40
2017-12-10T07:58:18.541Z,44.50
2017-12-10T08:00:45.980Z,44.90
2017-12-10T08:03:13.420Z,44.30
2017-12-10T08:05:40.851Z,45.10
2017-12-10T08:08:08.394Z,44.90
2017-12-10T08:10:35.864Z,44.90
2017-12-10T08:13:03.296Z,43.80
2017-12-10T08:15:30.757Z,43.60
2017-12-10T08:17:58.961Z,42.70
2017-12-10T08:20:26.440Z,43.20
2017-12-10T08:22:53.902Z,42.80
2017-12-10T08:25:21.441Z,42.10
2017-12-10T08:27:48.973Z,41.80
2017-12-10T08:30:16.409Z,41.00
2017-12-10T08:32:43.844Z,40.10
2017-12-10T08:35:11.389Z,40.60
2017-12-10T08:37:38.813Z,40.40
2017-12-10T08:40:06.254Z,40.80
2017-12-10T08:42:33.692Z,41.30
2017-12-10T08:45:01.172Z,41.10
2017-12-10T08:47:28.619Z,42.00
2017-12-10T08:49:56.046Z,40.70
2017-12-10T08:52:23.505Z,40.50
2017-12-10T08:54:51.028Z,39.20
2017-12-10T08:57:18.501Z,39.20
2017-12-10T08:59:45.941Z,38.50
2017-12-10T09:02:13.378Z,38.40
2017-12-10T09:04:40.812Z,37.20
2017-12-10T09:07:08.829Z,37.40
2017-12-10T09:09:36.274Z,37.50
2017-12-10T09:12:03.718Z,38.40
2017-12-10T09:14:31.152Z,38.60
2017-12-10T09:16:58.579Z,39.50
2017-12-10T09:19:26.781Z,40.70
2017-12-10T09:21:54.238Z,40.80
2017-12-10T09:24:21.674Z,41.40
2017-12-10T09:26:49.141Z,42.40
2017-12-10T09:29:16.563Z,42.50
2017-12-10T09:31:44.130Z,42.50
2017-12-10T09:34:11.565Z,42.60
2017-12-10T09:36:39.103Z,42.00
2017-12-10T09:39:06.540Z,42.00
2017-12-10T09:41:33.968Z,42.40
2017-12-10T09:44:01.446Z,42.40
2017-12-10T09:46:28.868Z,41.70
2017-12-10T09:48:56.355Z,40.70
2017-12-10T09:51:24.577Z,41.30
2017-12-10T09:53:52.032Z,41.40
2017-12-10T09:56:19.455Z,42.20
2017-12-10T09:58:46.909Z,41.80
2017-12-10T10:01:14.332Z,42.00
2017-12-10T10:03:41.827Z,42.00
2017-12-10T10:06:09.248Z,42.30
2017-12-10T10:08:36.814Z,42.40
2017-12-10T10:11:05.016Z,42.60
2017-12-10T10:13:32.452Z,42.60
2017-12-10T10:15:59.941Z,42.80
2017-12-10T10:18:27.367Z,43.20
2017-12-10T10:20:54.812Z,43.30
2017-12-10T10:23:22.272Z,43.20
2017-12-10T10:25:49.760Z,43.30
2017-12-10T10:28:17.221Z,43.30
2017-12-10T10:30:44.656Z,43.60
2017-12-10T10:33:12.244Z,43.50
2017-12-10T10:35:39.680Z,43.90
2017-12-10T10:38:07.939Z,43.10
2017-12-10T10:40:35.431Z,43.10
2017-12-10T10:43:02.944Z,43.10
2017-12-10T10:45:31.200Z,43.80
2017-12-10T10:47:58.632Z,43.50
2017-12-10T10:50:26.065Z,43.30
2017-12-10T10:52:53.500Z,42.10
2017-12-10T10:55:20.939Z,42.60
2017-12-10T10:57:48.378Z,42.60
2017-12-10T11:00:15.851Z,43.10
2017-12-10T11:02:43.290Z,42.00
2017-12-10T11:05:10.724Z,41.20
2017-12-10T11:07:38.157Z,41.10
2017-12-10T11:10:05.598Z,42.20
2017-12-10T11:12:33.048Z,41.10
2017-12-10T11:15:00.467Z,43.10
2017-12-10T11:17:27.896Z,41.00
2017-12-10T11:19:55.323Z,40.70
2017-12-10T11:22:22.827Z,40.90
2017-12-10T11:24:50.268Z,39.90
2017-12-10T11:27:17.692Z,41.90
2017-12-10T11:29:45.134Z,45.40
2017-12-10T11:32:13.556Z,47.70
2017-12-10T11:34:41.804Z,48.30
2017-12-10T11:37:09.327Z,48.30
2017-12-10T11:39:36.784Z,50.00
2017-12-10T11:42:05.037Z,60.00
2017-12-10T11:44:32.572Z,60.10
2017-12-10T11:47:00.115Z,62.50
2017-12-10T11:49:27.548Z,66.90
2017-12-10T11:51:55.009Z,69.30
2017-12-10T11:54:22.445Z,70.40
2017-12-10T11:56:49.926Z,71.70
2017-12-10T11:59:18.672Z,73.30
2017-12-10T12:01:46.108Z,73.30
2017-12-10T12:04:13.637Z,73.80
2017-12-10T12:06:41.076Z,74.20
2017-12-10T12:09:08.515Z,76.50
2017-12-10T12:11:36.094Z,77.40
2017-12-10T12:14:03.633Z,76.30
2017-12-10T12:16:31.080Z,77.00
2017-12-10T12:18:58.521Z,80.10
2017-12-10T12:21:25.962Z,79.40
2017-12-10T12:23:53.401Z,80.00
2017-12-10T12:26:20.843Z,79.30
2017-12-10T12:28:48.278Z,78.50
2017-12-10T12:31:15.707Z,78.90
2017-12-10T12:33:43.172Z,78.50
2017-12-10T12:36:10.611Z,80.30
2017-12-10T12:38:38.250Z,80.40
2017-12-10T12:41:05.781Z,80.80
2017-12-10T12:43:33.297Z,79.00
2017-12-10T12:48:35.302Z,78.60
2017-12-10T12:51:02.767Z,80.10
2017-12-10T12:53:31.018Z,78.70
2017-12-10T12:55:58.547Z,78.70
2017-12-10T12:58:25.988Z,79.70
2017-12-10T13:00:53.456Z,79.10
2017-12-10T13:03:21.688Z,78.70
2017-12-10T13:05:49.132Z,78.60
2017-12-10T13:08:16.575Z,78.10
2017-12-10T13:10:44.016Z,75.70
2017-12-10T13:13:11.473Z,76.00
2017-12-10T13:15:39.016Z,76.90
2017-12-10T13:18:06.476Z,76.70
2017-12-10T13:20:34.677Z,75.10
2017-12-10T13:23:02.145Z,75.10
2017-12-10T13:25:29.600Z,75.40
2017-12-10T13:27:57.044Z,76.10
2017-12-10T13:30:24.498Z,75.60
2017-12-10T13:32:51.934Z,74.40
2017-12-10T13:35:19.373Z,75.60
2017-12-10T13:37:48.420Z,75.30
2017-12-10T13:40:15.850Z,75.30
2017-12-10T13:42:43.300Z,75.30
2017-12-10T13:45:10.736Z,74.40
2017-12-10T13:47:38.188Z,74.20
2017-12-10T13:50:05.635Z,74.50
2017-12-10T13:52:33.068Z,74.40
2017-12-10T13:55:00.505Z,73.30
2017-12-10T13:57:27.989Z,73.50
2017-12-10T13:59:55.433Z,74.10
2017-12-10T14:02:22.963Z,74.50
2017-12-10T14:04:51.062Z,74.30
2017-12-10T14:07:18.502Z,73.90
2017-12-10T14:09:45.958Z,74.40
2017-12-10T14:12:13.387Z,74.60
2017-12-10T14:14:40.828Z,72.80
2017-12-10T14:17:08.261Z,73.70
2017-12-10T14:19:35.726Z,73.00
2017-12-10T14:22:03.160Z,73.70
2017-12-10T14:24:30.621Z,75.40
2017-12-10T14:26:58.079Z,74.60
2017-12-10T14:29:25.524Z,74.80
2017-12-10T14:31:53.021Z,75.50
2017-12-10T14:34:20.452Z,76.20
2017-12-10T14:36:48.028Z,75.40
2017-12-10T14:39:15.533Z,76.20
2017-12-10T14:41:43.720Z,77.10
2017-12-10T14:44:11.203Z,76.90
2017-12-10T14:46:38.657Z,77.80
2017-12-10T14:49:06.089Z,78.00
2017-12-10T14:51:33.543Z,78.20
2017-12-10T14:54:00.972Z,78.20
2017-12-10T14:56:28.581Z,77.10
2017-12-10T14:58:56.012Z,77.40
2017-12-10T15:01:23.448Z,77.60
2017-12-10T15:03:50.891Z,78.00
2017-12-10T15:06:18.366Z,77.80
2017-12-10T15:08:46.828Z,79.20
2017-12-10T15:11:14.272Z,78.30
2017-12-10T15:13:41.684Z,79.10
2017-12-10T15:16:09.183Z,79.10
2017-12-10T15:18:36.632Z,79.30
2017-12-10T15:21:04.064Z,78.60
2017-12-10T15:23:31.488Z,78.20
2017-12-10T15:25:58.931Z,78.30
2017-12-10T15:28:26.384Z,78.40
2017-12-10T15:30:53.839Z,78.50
2017-12-10T15:33:21.255Z,78.80
2017-12-10T15:35:48.703Z,79.40
2017-12-10T15:38:16.346Z,80.10
2017-12-10T15:40:43.788Z,80.50
2017-12-10T15:43:11.212Z,80.70
2017-12-10T15:45:38.667Z,81.10
2017-12-10T15:48:06.144Z,81.20
2017-12-10T15:50:33.587Z,81.80
2017-12-10T15:53:01.941Z,82.50
2017-12-10T15:55:29.585Z,82.50
2017-12-10T15:57:57.047Z,82.90
2017-12-10T16:00:24.640Z,83.40
2017-12-10T16:02:52.110Z,83.40
2017-12-10T16:05:19.568Z,83.60
2017-12-10T16:07:47.008Z,83.70
2017-12-10T16:10:14.456Z,83.90
2017-12-10T16:12:41.964Z,84.20
2017-12-10T16:15:09.404Z,84.00
2017-12-10T16:17:36.832Z,84.90
2017-12-10T16:20:04.264Z,87.10
2017-12-10T16:22:31.696Z,88.00
2017-12-10T16:24:59.941Z,87.40
2017-12-10T16:27:27.380Z,87.40
2017-12-10T16:29:54.917Z,87.00
2017-12-10T16:32:22.477Z,86.00
2017-12-10T16:34:50.184Z,86.00
2017-12-10T16:37:17.657Z,85.40
2017-12-10T16:39:45.099Z,84.90
2017-12-10T16:42:12.523Z,84.10
2017-12-10T16:44:39.953Z,84.00
2017-12-10T16:47:07.416Z,83.10
2017-12-10T16:49:34.850Z,82.30
2017-12-10T16:52:02.912Z,82.00
2017-12-10T16:54:30.393Z,81.20
2017-12-10T16:56:57.805Z,81.10
2017-12-10T16:59:25.247Z,80.90
2017-12-10T17:01:52.690Z,81.40
2017-12-10T17:04:20.236Z,80.10
2017-12-10T17:06:47.710Z,79.70
2017-12-10T17:09:15.137Z,79.50
2017-12-10T17:11:42.559Z,79.30
2017-12-10T17:14:10.005Z,78.80
2017-12-10T17:16:37.537Z,78.50
2017-12-10T17:19:04.988Z,78.40
2017-12-10T17:21:32.448Z,78.40
2017-12-10T17:23:59.932Z,77.20
2017-12-10T17:26:27.420Z,77.10
2017-12-10T17:28:54.871Z,76.50
2017-12-10T17:31:22.296Z,75.50
2017-12-10T17:33:49.759Z,75.50
2017-12-10T17:36:17.219Z,75.50
2017-12-10T17:38:45.431Z,74.20
2017-12-10T17:41:12.920Z,74.20
2017-12-10T17:43:40.444Z,73.90
2017-12-10T17:46:07.888Z,73.30
2017-12-10T17:48:35.324Z,73.00
2017-12-10T17:51:02.752Z,72.70
2017-12-10T17:53:30.185Z,72.70
2017-12-10T17:55:57.640Z,72.40
2017-12-10T17:58:26.049Z,72.30
2017-12-10T18:00:54.387Z,72.10
2017-12-10T18:03:21.804Z,72.20
2017-12-10T18:05:49.240Z,72.10
2017-12-10T18:08:16.655Z,72.10
2017-12-10T18:10:44.086Z,71.70
2017-12-10T18:13:12.272Z,71.10
2017-12-10T18:15:39.713Z,71.10
2017-12-10T18:18:07.168Z,70.60
2017-12-10T18:20:34.699Z,71.60
2017-12-10T18:23:02.124Z,69.00
2017-12-10T18:25:29.574Z,69.00
2017-12-10T18:27:57.005Z,68.50
2017-12-10T18:30:24.488Z,67.60
2017-12-10T18:32:52.674Z,65.80
2017-12-10T18:35:20.113Z,65.70
2017-12-10T18:37:47.541Z,65.50
2017-12-10T18:40:15.744Z,64.90
2017-12-10T18:42:43.172Z,65.00
2017-12-10T18:45:10.603Z,64.60
2017-12-10T18:47:38.029Z,64.30
2017-12-10T18:50:06.224Z,65.00
2017-12-10T18:52:33.695Z,65.10
2017-12-10T18:55:01.217Z,65.30
2017-12-10T18:57:28.667Z,65.00
2017-12-10T18:59:56.124Z,65.50
2017-12-10T19:02:23.560Z,66.20
2017-12-10T19:04:50.988Z,66.60
2017-12-10T19:07:18.557Z,66.70
2017-12-10T19:09:46.004Z,66.70
2017-12-10T19:12:13.557Z,67.20
2017-12-10T19:14:40.976Z,67.40
2017-12-10T19:17:08.449Z,67.60
2017-12-10T19:19:35.881Z,67.50
2017-12-10T19:22:03.326Z,67.30
2017-12-10T19:24:30.822Z,67.30
2017-12-10T19:26:58.256Z,67.30
2017-12-10T19:29:25.749Z,67.60
2017-12-10T19:31:53.230Z,68.10
2017-12-10T19:34:20.657Z,68.00
2017-12-10T19:36:48.180Z,68.80
2017-12-10T19:39:17.148Z,68.40
2017-12-10T19:41:44.661Z,68.30
2017-12-10T19:44:12.101Z,69.70
2017-12-10T19:46:39.630Z,70.00
2017-12-10T19:49:07.090Z,69.80
2017-12-10T19:51:34.583Z,69.40
2017-12-10T19:54:02.814Z,70.10
2017-12-10T19:56:30.410Z,70.00
2017-12-10T19:58:57.851Z,70.50
2017-12-10T20:01:25.278Z,70.30
2017-12-10T20:03:58.485Z,70.80
2017-12-10T20:06:25.910Z,70.80
2017-12-10T20:08:53.356Z,71.00
2017-12-10T20:11:20.804Z,72.20
2017-12-10T20:13:48.303Z,75.60
2017-12-10T20:16:15.759Z,74.70
2017-12-10T20:18:43.255Z,73.10
2017-12-10T20:21:10.665Z,73.60
2017-12-10T20:23:38.140Z,73.50
2017-12-10T20:26:05.568Z,74.00
2017-12-10T20:28:33.020Z,73.50
2017-12-10T20:31:00.444Z,73.90
2017-12-10T20:33:27.877Z,73.50
2017-12-10T20:35:55.320Z,73.40
2017-12-10T20:38:22.758Z,73.40
2017-12-10T20:40:50.251Z,73.60
2017-12-10T20:43:18.470Z,74.60
2017-12-10T20:45:45.888Z,73.90
2017-12-10T20:48:13.328Z,74.10
2017-12-10T20:50:40.768Z,74.30
2017-12-10T20:53:08.201Z,74.30
2017-12-10T20:55:35.627Z,74.50
2017-12-10T20:58:03.859Z,74.60
2017-12-10T21:00:31.354Z,74.60
2017-12-10T21:02:58.757Z,74.40
2017-12-10T21:05:26.189Z,74.60
2017-12-10T21:07:53.749Z,75.60
2017-12-10T21:10:21.182Z,75.00
2017-12-10T21:12:48.638Z,75.00
2017-12-10T21:15:16.076Z,75.10
2017-12-10T21:17:43.506Z,74.80
2017-12-10T21:20:10.986Z,75.10
2017-12-10T21:22:38.372Z,75.10
2017-12-10T21:25:05.811Z,74.80
2017-12-10T21:27:33.295Z,74.70
2017-12-10T21:30:00.694Z,74.70
2017-12-10T21:32:28.188Z,74.60
2017-12-10T21:34:56.399Z,74.30
2017-12-10T21:37:23.820Z,74.20
2017-12-10T21:39:51.308Z,73.80
2017-12-10T21:42:18.823Z,73.40
2017-12-10T21:44:46.271Z,72.80
2017-12-10T21:47:13.693Z,72.70
2017-12-10T21:49:41.139Z,70.70
2017-12-10T21:52:08.568Z,71.30
2017-12-10T21:54:35.992Z,69.80
2017-12-10T21:57:03.427Z,70.10
2017-12-10T21:59:30.852Z,70.30
2017-12-10T22:01:58.296Z,70.70
2017-12-10T22:04:25.725Z,70.90
2017-12-10T22:06:53.160Z,71.00
2017-12-10T22:09:21.411Z,71.30
2017-12-10T22:11:48.844Z,71.30
2017-12-10T22:14:16.268Z,71.60
2017-12-10T22:16:43.725Z,71.80
2017-12-10T22:19:11.172Z,71.80
2017-12-10T22:21:40.117Z,72.50
2017-12-10T22:24:07.605Z,72.40
2017-12-10T22:26:35.812Z,72.60
2017-12-10T22:29:03.255Z,72.50
2017-12-10T22:31:30.728Z,72.70
2017-12-10T22:33:58.188Z,72.90
2017-12-10T22:36:25.639Z,72.80
2017-12-10T22:38:53.823Z,73.20
2017-12-10T22:41:21.260Z,73.30
2017-12-10T22:43:48.704Z,73.60
2017-12-10T22:46:16.208Z,74.10
2017-12-10T22:48:43.648Z,73.90
2017-12-10T22:51:11.075Z,74.00
2017-12-10T22:53:38.523Z,74.10
2017-12-10T22:56:05.976Z,74.30
2017-12-10T22:58:33.408Z,74.40
2017-12-10T23:01:00.856Z,74.20
2017-12-10T23:03:28.833Z,73.60
2017-12-10T23:05:56.277Z,73.80
2017-12-10T23:08:23.717Z,74.10
2017-12-10T23:10:51.245Z,73.80
2017-12-10T23:13:18.690Z,73.20
2017-12-10T23:15:46.120Z,73.30
2017-12-10T23:18:13.686Z,72.90
2017-12-10T23:20:41.220Z,72.80
2017-12-10T23:23:08.770Z,72.70
2017-12-10T23:25:36.213Z,72.50
2017-12-10T23:28:04.444Z,72.30
2017-12-10T23:30:31.880Z,72.20
2017-12-10T23:32:59.427Z,72.20
2017-12-10T23:35:26.861Z,72.50
2017-12-10T23:37:54.325Z,72.40
2017-12-10T23:40:21.764Z,72.50
2017-12-10T23:42:49.196Z,72.40
2017-12-10T23:45:16.629Z,72.50
2017-12-10T23:47:44.055Z,72.50
2017-12-10T23:50:11.496Z,72.40
2017-12-10T23:52:38.975Z,72.40
2017-12-10T23:55:06.410Z,72.80
2017-12-10T23:57:33.840Z,72.80
